sensor_id;sensor_type;location;lat;lon;timestamp;P1;durP1;ratioP1;P2;durP2;ratioP2
68250;SDS011;55066;51.560;4.642;2023-04-16T00:02:09;7.03;;;1.70;;
68250;SDS011;55066;51.560;4.642;2023-04-16T00:04:35;4.43;;;1.60;;
68250;SDS011;55066;51.560;4.642;2023-04-16T00:07:00;3.73;;;1.40;;
68250;SDS011;55066;51.560;4.642;2023-04-16T00:09:25;6.90;;;1.50;;
68250;SDS011;55066;51.560;4.642;2023-04-16T00:11:51;6.88;;;1.45;;
68250;SDS011;55066;51.560;4.642;2023-04-16T00:14:16;5.57;;;1.50;;
68250;SDS011;55066;51.560;4.642;2023-04-16T00:16:42;5.60;;;1.80;;
68250;SDS011;55066;51.560;4.642;2023-04-16T00:19:07;5.47;;;1.70;;
68250;SDS011;55066;51.560;4.642;2023-04-16T00:21:32;6.00;;;1.80;;
68250;SDS011;55066;51.560;4.642;2023-04-16T00:23:58;9.07;;;1.67;;
68250;SDS011;55066;51.560;4.642;2023-04-16T00:26:25;10.80;;;2.10;;
68250;SDS011;55066;51.560;4.642;2023-04-16T00:28:51;7.00;;;1.60;;
68250;SDS011;55066;51.560;4.642;2023-04-16T00:31:17;5.13;;;2.00;;
68250;SDS011;55066;51.560;4.642;2023-04-16T00:33:42;10.17;;;2.37;;
68250;SDS011;55066;51.560;4.642;2023-04-16T00:36:08;7.60;;;1.70;;
68250;SDS011;55066;51.560;4.642;2023-04-16T00:38:33;6.70;;;2.07;;
68250;SDS011;55066;51.560;4.642;2023-04-16T00:40:59;7.20;;;1.48;;
68250;SDS011;55066;51.560;4.642;2023-04-16T00:43:26;5.73;;;1.60;;
68250;SDS011;55066;51.560;4.642;2023-04-16T00:45:52;6.35;;;1.50;;
68250;SDS011;55066;51.560;4.642;2023-04-16T00:48:20;4.38;;;1.60;;
68250;SDS011;55066;51.560;4.642;2023-04-16T00:50:46;4.30;;;1.90;;
68250;SDS011;55066;51.560;4.642;2023-04-16T00:53:13;5.20;;;1.85;;
68250;SDS011;55066;51.560;4.642;2023-04-16T00:55:40;5.97;;;1.95;;
68250;SDS011;55066;51.560;4.642;2023-04-16T00:58:06;9.90;;;2.08;;
68250;SDS011;55066;51.560;4.642;2023-04-16T01:00:32;7.57;;;1.90;;
68250;SDS011;55066;51.560;4.642;2023-04-16T01:02:57;6.07;;;2.13;;
68250;SDS011;55066;51.560;4.642;2023-04-16T01:05:25;7.32;;;2.30;;
68250;SDS011;55066;51.560;4.642;2023-04-16T01:07:52;6.10;;;2.13;;
68250;SDS011;55066;51.560;4.642;2023-04-16T01:10:18;7.50;;;2.08;;
68250;SDS011;55066;51.560;4.642;2023-04-16T01:12:43;7.47;;;2.70;;
68250;SDS011;55066;51.560;4.642;2023-04-16T01:15:09;6.72;;;2.50;;
68250;SDS011;55066;51.560;4.642;2023-04-16T01:17:36;7.33;;;2.03;;
68250;SDS011;55066;51.560;4.642;2023-04-16T01:20:04;7.05;;;2.55;;
68250;SDS011;55066;51.560;4.642;2023-04-16T01:22:30;11.70;;;3.00;;
68250;SDS011;55066;51.560;4.642;2023-04-16T01:24:56;8.45;;;2.42;;
68250;SDS011;55066;51.560;4.642;2023-04-16T01:27:23;10.53;;;2.70;;
68250;SDS011;55066;51.560;4.642;2023-04-16T01:29:51;8.68;;;2.75;;
68250;SDS011;55066;51.560;4.642;2023-04-16T01:32:22;11.18;;;2.92;;
68250;SDS011;55066;51.560;4.642;2023-04-16T01:34:49;9.18;;;2.90;;
68250;SDS011;55066;51.560;4.642;2023-04-16T01:37:16;16.60;;;3.13;;
68250;SDS011;55066;51.560;4.642;2023-04-16T01:39:41;4.15;;;1.58;;
68250;SDS011;55066;51.560;4.642;2023-04-16T01:42:08;10.03;;;3.30;;
68250;SDS011;55066;51.560;4.642;2023-04-16T01:44:35;6.85;;;2.35;;
68250;SDS011;55066;51.560;4.642;2023-04-16T01:47:00;14.97;;;2.50;;
68250;SDS011;55066;51.560;4.642;2023-04-16T01:49:26;7.90;;;2.70;;
68250;SDS011;55066;51.560;4.642;2023-04-16T01:51:51;11.10;;;3.27;;
68250;SDS011;55066;51.560;4.642;2023-04-16T01:54:18;8.38;;;2.60;;
68250;SDS011;55066;51.560;4.642;2023-04-16T01:56:43;10.80;;;2.47;;
68250;SDS011;55066;51.560;4.642;2023-04-16T01:59:09;8.70;;;2.50;;
68250;SDS011;55066;51.560;4.642;2023-04-16T02:01:38;14.05;;;3.00;;
68250;SDS011;55066;51.560;4.642;2023-04-16T02:04:04;8.60;;;2.22;;
68250;SDS011;55066;51.560;4.642;2023-04-16T02:06:34;9.10;;;2.50;;
68250;SDS011;55066;51.560;4.642;2023-04-16T02:09:00;7.37;;;2.17;;
68250;SDS011;55066;51.560;4.642;2023-04-16T02:11:26;8.82;;;2.03;;
68250;SDS011;55066;51.560;4.642;2023-04-16T02:13:52;8.85;;;2.22;;
68250;SDS011;55066;51.560;4.642;2023-04-16T02:16:18;8.25;;;2.38;;
68250;SDS011;55066;51.560;4.642;2023-04-16T02:19:08;7.37;;;2.27;;
68250;SDS011;55066;51.560;4.642;2023-04-16T02:21:35;6.53;;;2.65;;
68250;SDS011;55066;51.560;4.642;2023-04-16T02:24:01;7.32;;;2.20;;
68250;SDS011;55066;51.560;4.642;2023-04-16T02:26:29;9.65;;;2.70;;
68250;SDS011;55066;51.560;4.642;2023-04-16T02:28:58;8.07;;;2.38;;
68250;SDS011;55066;51.560;4.642;2023-04-16T02:31:31;10.45;;;2.60;;
68250;SDS011;55066;51.560;4.642;2023-04-16T02:33:57;8.23;;;2.50;;
68250;SDS011;55066;51.560;4.642;2023-04-16T02:36:22;7.00;;;2.15;;
68250;SDS011;55066;51.560;4.642;2023-04-16T02:38:48;10.95;;;2.47;;
68250;SDS011;55066;51.560;4.642;2023-04-16T02:41:15;10.38;;;2.45;;
68250;SDS011;55066;51.560;4.642;2023-04-16T02:43:40;8.20;;;2.60;;
68250;SDS011;55066;51.560;4.642;2023-04-16T02:46:07;6.47;;;2.25;;
68250;SDS011;55066;51.560;4.642;2023-04-16T02:48:32;10.13;;;2.50;;
68250;SDS011;55066;51.560;4.642;2023-04-16T02:50:59;11.13;;;2.70;;
68250;SDS011;55066;51.560;4.642;2023-04-16T02:53:25;9.57;;;3.08;;
68250;SDS011;55066;51.560;4.642;2023-04-16T02:55:51;9.60;;;2.77;;
68250;SDS011;55066;51.560;4.642;2023-04-16T02:58:17;16.48;;;2.88;;
68250;SDS011;55066;51.560;4.642;2023-04-16T03:00:47;11.50;;;2.50;;
68250;SDS011;55066;51.560;4.642;2023-04-16T03:03:12;8.50;;;2.40;;
68250;SDS011;55066;51.560;4.642;2023-04-16T03:05:38;8.85;;;2.50;;
68250;SDS011;55066;51.560;4.642;2023-04-16T03:08:04;7.20;;;2.40;;
68250;SDS011;55066;51.560;4.642;2023-04-16T03:10:33;8.95;;;2.63;;
68250;SDS011;55066;51.560;4.642;2023-04-16T03:13:00;10.57;;;2.47;;
68250;SDS011;55066;51.560;4.642;2023-04-16T03:15:25;7.50;;;2.58;;
68250;SDS011;55066;51.560;4.642;2023-04-16T03:17:52;7.18;;;2.53;;
68250;SDS011;55066;51.560;4.642;2023-04-16T03:20:17;8.67;;;2.17;;
68250;SDS011;55066;51.560;4.642;2023-04-16T03:22:44;11.60;;;2.85;;
68250;SDS011;55066;51.560;4.642;2023-04-16T03:25:12;9.43;;;2.70;;
68250;SDS011;55066;51.560;4.642;2023-04-16T03:27:38;11.73;;;2.80;;
68250;SDS011;55066;51.560;4.642;2023-04-16T03:30:04;11.43;;;2.43;;
68250;SDS011;55066;51.560;4.642;2023-04-16T03:32:34;7.72;;;2.58;;
68250;SDS011;55066;51.560;4.642;2023-04-16T03:35:05;13.82;;;2.92;;
68250;SDS011;55066;51.560;4.642;2023-04-16T03:37:32;7.60;;;2.72;;
68250;SDS011;55066;51.560;4.642;2023-04-16T03:39:58;10.50;;;3.63;;
68250;SDS011;55066;51.560;4.642;2023-04-16T03:42:23;11.43;;;2.60;;
68250;SDS011;55066;51.560;4.642;2023-04-16T03:44:49;7.00;;;2.80;;
68250;SDS011;55066;51.560;4.642;2023-04-16T03:47:16;10.63;;;3.28;;
68250;SDS011;55066;51.560;4.642;2023-04-16T03:49:42;9.90;;;2.90;;
68250;SDS011;55066;51.560;4.642;2023-04-16T03:52:08;10.93;;;3.13;;
68250;SDS011;55066;51.560;4.642;2023-04-16T03:54:34;10.18;;;2.80;;
68250;SDS011;55066;51.560;4.642;2023-04-16T03:57:11;9.50;;;2.80;;
68250;SDS011;55066;51.560;4.642;2023-04-16T03:59:37;5.68;;;2.30;;
68250;SDS011;55066;51.560;4.642;2023-04-16T04:02:05;10.63;;;3.50;;
68250;SDS011;55066;51.560;4.642;2023-04-16T04:04:32;8.57;;;2.80;;
68250;SDS011;55066;51.560;4.642;2023-04-16T04:06:57;6.77;;;2.17;;
68250;SDS011;55066;51.560;4.642;2023-04-16T04:09:24;10.32;;;2.60;;
68250;SDS011;55066;51.560;4.642;2023-04-16T04:11:56;5.45;;;2.50;;
68250;SDS011;55066;51.560;4.642;2023-04-16T04:14:21;5.10;;;2.22;;
68250;SDS011;55066;51.560;4.642;2023-04-16T04:16:48;9.00;;;2.57;;
68250;SDS011;55066;51.560;4.642;2023-04-16T04:19:15;7.03;;;2.17;;
68250;SDS011;55066;51.560;4.642;2023-04-16T04:21:43;8.47;;;2.77;;
68250;SDS011;55066;51.560;4.642;2023-04-16T04:24:09;10.98;;;2.88;;
68250;SDS011;55066;51.560;4.642;2023-04-16T04:26:39;6.10;;;2.67;;
68250;SDS011;55066;51.560;4.642;2023-04-16T04:29:05;7.30;;;2.90;;
68250;SDS011;55066;51.560;4.642;2023-04-16T04:31:30;6.67;;;2.50;;
68250;SDS011;55066;51.560;4.642;2023-04-16T04:33:56;7.38;;;3.20;;
68250;SDS011;55066;51.560;4.642;2023-04-16T04:36:22;5.67;;;2.60;;
68250;SDS011;55066;51.560;4.642;2023-04-16T04:38:48;10.00;;;2.85;;
68250;SDS011;55066;51.560;4.642;2023-04-16T04:41:15;6.70;;;2.90;;
68250;SDS011;55066;51.560;4.642;2023-04-16T04:43:41;8.50;;;2.63;;
68250;SDS011;55066;51.560;4.642;2023-04-16T04:46:06;6.70;;;2.83;;
68250;SDS011;55066;51.560;4.642;2023-04-16T04:48:32;11.55;;;2.95;;
68250;SDS011;55066;51.560;4.642;2023-04-16T04:50:58;7.63;;;3.13;;
68250;SDS011;55066;51.560;4.642;2023-04-16T04:53:24;9.70;;;2.67;;
68250;SDS011;55066;51.560;4.642;2023-04-16T04:55:50;9.52;;;2.95;;
68250;SDS011;55066;51.560;4.642;2023-04-16T04:58:15;9.50;;;2.90;;
68250;SDS011;55066;51.560;4.642;2023-04-16T05:00:41;11.57;;;2.67;;
68250;SDS011;55066;51.560;4.642;2023-04-16T05:03:08;11.10;;;3.40;;
68250;SDS011;55066;51.560;4.642;2023-04-16T05:05:35;8.38;;;2.42;;
68250;SDS011;55066;51.560;4.642;2023-04-16T05:08:01;10.40;;;3.50;;
68250;SDS011;55066;51.560;4.642;2023-04-16T05:10:27;12.38;;;3.03;;
68250;SDS011;55066;51.560;4.642;2023-04-16T05:12:53;10.90;;;3.10;;
68250;SDS011;55066;51.560;4.642;2023-04-16T05:15:18;11.80;;;3.30;;
68250;SDS011;55066;51.560;4.642;2023-04-16T05:17:44;8.73;;;2.80;;
68250;SDS011;55066;51.560;4.642;2023-04-16T05:20:10;17.95;;;3.13;;
68250;SDS011;55066;51.560;4.642;2023-04-16T05:22:35;9.90;;;3.10;;
68250;SDS011;55066;51.560;4.642;2023-04-16T05:25:01;10.27;;;3.22;;
68250;SDS011;55066;51.560;4.642;2023-04-16T05:27:26;9.48;;;3.38;;
68250;SDS011;55066;51.560;4.642;2023-04-16T05:29:52;12.73;;;3.50;;
68250;SDS011;55066;51.560;4.642;2023-04-16T05:32:17;9.50;;;3.27;;
68250;SDS011;55066;51.560;4.642;2023-04-16T05:34:43;8.30;;;3.25;;
68250;SDS011;55066;51.560;4.642;2023-04-16T05:37:08;7.83;;;2.80;;
68250;SDS011;55066;51.560;4.642;2023-04-16T05:39:33;7.40;;;3.13;;
68250;SDS011;55066;51.560;4.642;2023-04-16T05:42:00;9.55;;;3.35;;
68250;SDS011;55066;51.560;4.642;2023-04-16T05:44:25;15.33;;;3.50;;
68250;SDS011;55066;51.560;4.642;2023-04-16T05:46:53;11.48;;;3.40;;
68250;SDS011;55066;51.560;4.642;2023-04-16T05:49:18;9.73;;;3.70;;
68250;SDS011;55066;51.560;4.642;2023-04-16T05:51:47;9.02;;;3.50;;
68250;SDS011;55066;51.560;4.642;2023-04-16T05:54:14;11.65;;;3.55;;
68250;SDS011;55066;51.560;4.642;2023-04-16T05:56:39;7.23;;;2.83;;
68250;SDS011;55066;51.560;4.642;2023-04-16T05:59:09;12.03;;;3.50;;
68250;SDS011;55066;51.560;4.642;2023-04-16T06:01:34;8.93;;;3.22;;
68250;SDS011;55066;51.560;4.642;2023-04-16T06:04:03;13.93;;;3.03;;
68250;SDS011;55066;51.560;4.642;2023-04-16T06:06:29;8.70;;;2.93;;
68250;SDS011;55066;51.560;4.642;2023-04-16T06:08:54;11.48;;;2.97;;
68250;SDS011;55066;51.560;4.642;2023-04-16T06:11:20;10.03;;;3.10;;
68250;SDS011;55066;51.560;4.642;2023-04-16T06:13:47;10.77;;;3.10;;
68250;SDS011;55066;51.560;4.642;2023-04-16T06:16:13;12.50;;;3.47;;
68250;SDS011;55066;51.560;4.642;2023-04-16T06:18:38;8.27;;;3.03;;
68250;SDS011;55066;51.560;4.642;2023-04-16T06:21:03;9.52;;;3.25;;
68250;SDS011;55066;51.560;4.642;2023-04-16T06:23:30;7.27;;;2.90;;
68250;SDS011;55066;51.560;4.642;2023-04-16T06:25:56;9.57;;;3.15;;
68250;SDS011;55066;51.560;4.642;2023-04-16T06:28:21;9.03;;;3.10;;
68250;SDS011;55066;51.560;4.642;2023-04-16T06:30:47;6.97;;;2.90;;
68250;SDS011;55066;51.560;4.642;2023-04-16T06:33:12;8.88;;;2.70;;
68250;SDS011;55066;51.560;4.642;2023-04-16T06:35:38;9.60;;;2.87;;
68250;SDS011;55066;51.560;4.642;2023-04-16T06:38:10;5.43;;;2.50;;
68250;SDS011;55066;51.560;4.642;2023-04-16T06:40:38;9.85;;;3.20;;
68250;SDS011;55066;51.560;4.642;2023-04-16T06:43:09;6.60;;;2.17;;
68250;SDS011;55066;51.560;4.642;2023-04-16T06:45:35;9.18;;;3.22;;
68250;SDS011;55066;51.560;4.642;2023-04-16T06:48:02;11.43;;;3.03;;
68250;SDS011;55066;51.560;4.642;2023-04-16T06:50:29;6.90;;;2.50;;
68250;SDS011;55066;51.560;4.642;2023-04-16T06:52:55;12.55;;;4.15;;
68250;SDS011;55066;51.560;4.642;2023-04-16T06:55:21;9.38;;;3.60;;
68250;SDS011;55066;51.560;4.642;2023-04-16T06:57:47;8.93;;;3.00;;
68250;SDS011;55066;51.560;4.642;2023-04-16T07:00:12;6.13;;;3.20;;
68250;SDS011;55066;51.560;4.642;2023-04-16T07:02:38;9.60;;;3.58;;
68250;SDS011;55066;51.560;4.642;2023-04-16T07:05:04;15.20;;;3.27;;
68250;SDS011;55066;51.560;4.642;2023-04-16T07:07:30;7.13;;;3.00;;
68250;SDS011;55066;51.560;4.642;2023-04-16T07:09:57;13.07;;;3.58;;
68250;SDS011;55066;51.560;4.642;2023-04-16T07:12:25;9.73;;;4.10;;
68250;SDS011;55066;51.560;4.642;2023-04-16T07:14:51;9.60;;;3.90;;
68250;SDS011;55066;51.560;4.642;2023-04-16T07:17:19;10.05;;;3.85;;
68250;SDS011;55066;51.560;4.642;2023-04-16T07:19:45;7.00;;;2.92;;
68250;SDS011;55066;51.560;4.642;2023-04-16T07:22:11;11.23;;;3.87;;
68250;SDS011;55066;51.560;4.642;2023-04-16T07:24:36;9.50;;;3.03;;
68250;SDS011;55066;51.560;4.642;2023-04-16T07:27:02;11.80;;;3.83;;
68250;SDS011;55066;51.560;4.642;2023-04-16T07:29:27;15.13;;;3.90;;
68250;SDS011;55066;51.560;4.642;2023-04-16T07:31:57;12.13;;;3.58;;
68250;SDS011;55066;51.560;4.642;2023-04-16T07:34:23;11.33;;;3.57;;
68250;SDS011;55066;51.560;4.642;2023-04-16T07:36:57;10.32;;;3.85;;
68250;SDS011;55066;51.560;4.642;2023-04-16T07:39:23;11.20;;;4.10;;
68250;SDS011;55066;51.560;4.642;2023-04-16T07:41:51;13.43;;;4.20;;
68250;SDS011;55066;51.560;4.642;2023-04-16T07:44:17;11.85;;;4.22;;
68250;SDS011;55066;51.560;4.642;2023-04-16T07:46:43;11.13;;;4.10;;
68250;SDS011;55066;51.560;4.642;2023-04-16T07:49:08;10.43;;;3.25;;
68250;SDS011;55066;51.560;4.642;2023-04-16T07:51:34;15.33;;;3.27;;
68250;SDS011;55066;51.560;4.642;2023-04-16T07:54:02;10.15;;;3.17;;
68250;SDS011;55066;51.560;4.642;2023-04-16T07:56:29;9.30;;;3.30;;
68250;SDS011;55066;51.560;4.642;2023-04-16T07:58:56;8.98;;;3.53;;
68250;SDS011;55066;51.560;4.642;2023-04-16T08:01:22;8.57;;;2.97;;
68250;SDS011;55066;51.560;4.642;2023-04-16T08:03:49;6.45;;;3.10;;
68250;SDS011;55066;51.560;4.642;2023-04-16T08:06:15;9.18;;;3.42;;
68250;SDS011;55066;51.560;4.642;2023-04-16T08:08:41;9.80;;;2.97;;
68250;SDS011;55066;51.560;4.642;2023-04-16T08:11:10;8.73;;;3.67;;
68250;SDS011;55066;51.560;4.642;2023-04-16T08:13:35;7.70;;;3.72;;
68250;SDS011;55066;51.560;4.642;2023-04-16T08:16:01;9.18;;;4.15;;
68250;SDS011;55066;51.560;4.642;2023-04-16T08:18:27;9.30;;;4.07;;
68250;SDS011;55066;51.560;4.642;2023-04-16T08:20:53;8.65;;;3.40;;
68250;SDS011;55066;51.560;4.642;2023-04-16T08:23:19;13.27;;;3.55;;
68250;SDS011;55066;51.560;4.642;2023-04-16T08:25:47;8.77;;;3.13;;
68250;SDS011;55066;51.560;4.642;2023-04-16T08:28:13;9.82;;;3.28;;
68250;SDS011;55066;51.560;4.642;2023-04-16T08:30:40;8.90;;;3.53;;
68250;SDS011;55066;51.560;4.642;2023-04-16T08:33:06;11.27;;;3.30;;
68250;SDS011;55066;51.560;4.642;2023-04-16T08:35:31;10.50;;;3.20;;
68250;SDS011;55066;51.560;4.642;2023-04-16T08:37:58;7.47;;;3.30;;
68250;SDS011;55066;51.560;4.642;2023-04-16T08:40:25;9.68;;;3.90;;
68250;SDS011;55066;51.560;4.642;2023-04-16T08:42:58;8.07;;;3.55;;
68250;SDS011;55066;51.560;4.642;2023-04-16T08:45:29;10.37;;;4.20;;
68250;SDS011;55066;51.560;4.642;2023-04-16T08:47:58;10.25;;;3.83;;
68250;SDS011;55066;51.560;4.642;2023-04-16T08:50:28;9.55;;;4.35;;
68250;SDS011;55066;51.560;4.642;2023-04-16T08:52:57;8.23;;;3.60;;
68250;SDS011;55066;51.560;4.642;2023-04-16T08:56:09;10.23;;;3.90;;
68250;SDS011;55066;51.560;4.642;2023-04-16T08:58:19;13.73;;;4.27;;
68250;SDS011;55066;51.560;4.642;2023-04-16T09:00:47;8.82;;;3.95;;
68250;SDS011;55066;51.560;4.642;2023-04-16T09:03:21;15.55;;;5.25;;
68250;SDS011;55066;51.560;4.642;2023-04-16T09:05:46;10.10;;;4.32;;
68250;SDS011;55066;51.560;4.642;2023-04-16T09:08:16;11.60;;;4.87;;
68250;SDS011;55066;51.560;4.642;2023-04-16T09:10:42;11.50;;;4.45;;
68250;SDS011;55066;51.560;4.642;2023-04-16T09:13:08;9.70;;;4.47;;
68250;SDS011;55066;51.560;4.642;2023-04-16T09:15:37;14.70;;;5.15;;
68250;SDS011;55066;51.560;4.642;2023-04-16T09:18:05;11.85;;;5.20;;
68250;SDS011;55066;51.560;4.642;2023-04-16T09:20:30;12.83;;;4.20;;
68250;SDS011;55066;51.560;4.642;2023-04-16T09:22:55;12.45;;;5.25;;
68250;SDS011;55066;51.560;4.642;2023-04-16T09:25:21;14.45;;;5.53;;
68250;SDS011;55066;51.560;4.642;2023-04-16T09:27:50;11.73;;;5.32;;
68250;SDS011;55066;51.560;4.642;2023-04-16T09:30:21;14.00;;;5.37;;
68250;SDS011;55066;51.560;4.642;2023-04-16T09:32:49;13.52;;;5.55;;
68250;SDS011;55066;51.560;4.642;2023-04-16T09:35:17;9.85;;;4.85;;
68250;SDS011;55066;51.560;4.642;2023-04-16T09:37:53;10.57;;;4.65;;
68250;SDS011;55066;51.560;4.642;2023-04-16T09:40:28;11.80;;;5.03;;
68250;SDS011;55066;51.560;4.642;2023-04-16T09:42:56;11.43;;;4.23;;
68250;SDS011;55066;51.560;4.642;2023-04-16T09:45:25;10.80;;;5.05;;
68250;SDS011;55066;51.560;4.642;2023-04-16T09:47:56;8.25;;;3.85;;
68250;SDS011;55066;51.560;4.642;2023-04-16T09:50:28;10.80;;;4.60;;
68250;SDS011;55066;51.560;4.642;2023-04-16T09:53:07;12.88;;;5.28;;
68250;SDS011;55066;51.560;4.642;2023-04-16T09:55:32;12.07;;;4.87;;
68250;SDS011;55066;51.560;4.642;2023-04-16T09:57:58;13.00;;;5.07;;
68250;SDS011;55066;51.560;4.642;2023-04-16T10:00:29;8.57;;;3.55;;
68250;SDS011;55066;51.560;4.642;2023-04-16T10:03:10;15.20;;;5.37;;
68250;SDS011;55066;51.560;4.642;2023-04-16T10:05:37;15.10;;;5.25;;
68250;SDS011;55066;51.560;4.642;2023-04-16T10:08:05;13.83;;;5.57;;
68250;SDS011;55066;51.560;4.642;2023-04-16T10:10:37;15.43;;;6.03;;
68250;SDS011;55066;51.560;4.642;2023-04-16T10:13:03;12.77;;;5.22;;
68250;SDS011;55066;51.560;4.642;2023-04-16T10:15:32;12.13;;;5.07;;
68250;SDS011;55066;51.560;4.642;2023-04-16T10:17:58;13.90;;;5.97;;
68250;SDS011;55066;51.560;4.642;2023-04-16T10:20:26;19.00;;;6.57;;
68250;SDS011;55066;51.560;4.642;2023-04-16T10:22:55;12.88;;;6.25;;
68250;SDS011;55066;51.560;4.642;2023-04-16T10:25:21;12.82;;;5.88;;
68250;SDS011;55066;51.560;4.642;2023-04-16T10:27:47;15.18;;;5.97;;
68250;SDS011;55066;51.560;4.642;2023-04-16T10:30:14;15.77;;;6.13;;
68250;SDS011;55066;51.560;4.642;2023-04-16T10:32:40;17.70;;;6.15;;
68250;SDS011;55066;51.560;4.642;2023-04-16T10:35:06;12.90;;;5.55;;
68250;SDS011;55066;51.560;4.642;2023-04-16T10:37:32;15.43;;;5.97;;
68250;SDS011;55066;51.560;4.642;2023-04-16T10:39:58;15.77;;;4.53;;
68250;SDS011;55066;51.560;4.642;2023-04-16T10:42:24;14.93;;;6.03;;
68250;SDS011;55066;51.560;4.642;2023-04-16T10:44:50;15.68;;;5.78;;
68250;SDS011;55066;51.560;4.642;2023-04-16T10:47:16;14.18;;;6.13;;
68250;SDS011;55066;51.560;4.642;2023-04-16T10:49:43;13.95;;;4.95;;
68250;SDS011;55066;51.560;4.642;2023-04-16T10:52:12;10.25;;;4.75;;
68250;SDS011;55066;51.560;4.642;2023-04-16T10:54:45;12.18;;;4.82;;
68250;SDS011;55066;51.560;4.642;2023-04-16T10:57:15;11.82;;;5.35;;
68250;SDS011;55066;51.560;4.642;2023-04-16T10:59:42;16.38;;;6.10;;
68250;SDS011;55066;51.560;4.642;2023-04-16T11:02:17;15.07;;;6.25;;
68250;SDS011;55066;51.560;4.642;2023-04-16T11:04:43;12.77;;;5.85;;
68250;SDS011;55066;51.560;4.642;2023-04-16T11:12:15;12.05;;;5.88;;
68250;SDS011;55066;51.560;4.642;2023-04-16T11:14:53;15.00;;;6.50;;
68250;SDS011;55066;51.560;4.642;2023-04-16T11:17:26;16.90;;;6.10;;
68250;SDS011;55066;51.560;4.642;2023-04-16T11:19:53;13.32;;;5.25;;
68250;SDS011;55066;51.560;4.642;2023-04-16T11:22:18;17.48;;;5.90;;
68250;SDS011;55066;51.560;4.642;2023-04-16T11:24:44;16.77;;;6.00;;
68250;SDS011;55066;51.560;4.642;2023-04-16T11:27:14;17.98;;;6.35;;
68250;SDS011;55066;51.560;4.642;2023-04-16T11:29:40;15.70;;;6.05;;
68250;SDS011;55066;51.560;4.642;2023-04-16T11:32:09;12.73;;;6.03;;
68250;SDS011;55066;51.560;4.642;2023-04-16T11:34:44;16.83;;;7.32;;
68250;SDS011;55066;51.560;4.642;2023-04-16T11:37:11;15.70;;;6.13;;
68250;SDS011;55066;51.560;4.642;2023-04-16T11:39:47;12.60;;;5.95;;
68250;SDS011;55066;51.560;4.642;2023-04-16T11:42:20;14.10;;;5.97;;
68250;SDS011;55066;51.560;4.642;2023-04-16T11:44:51;16.13;;;5.90;;
68250;SDS011;55066;51.560;4.642;2023-04-16T11:47:21;13.80;;;5.72;;
68250;SDS011;55066;51.560;4.642;2023-04-16T11:49:48;15.05;;;5.80;;
68250;SDS011;55066;51.560;4.642;2023-04-16T11:52:28;11.82;;;5.55;;
68250;SDS011;55066;51.560;4.642;2023-04-16T11:54:56;21.63;;;7.37;;
68250;SDS011;55066;51.560;4.642;2023-04-16T11:57:26;15.82;;;6.38;;
68250;SDS011;55066;51.560;4.642;2023-04-16T11:59:55;20.02;;;6.53;;
68250;SDS011;55066;51.560;4.642;2023-04-16T12:05:36;20.45;;;6.38;;
68250;SDS011;55066;51.560;4.642;2023-04-16T12:08:08;18.97;;;7.00;;
68250;SDS011;55066;51.560;4.642;2023-04-16T12:10:37;17.27;;;7.75;;
68250;SDS011;55066;51.560;4.642;2023-04-16T12:13:16;20.48;;;6.75;;
68250;SDS011;55066;51.560;4.642;2023-04-16T12:15:50;17.58;;;7.25;;
68250;SDS011;55066;51.560;4.642;2023-04-16T12:18:21;17.92;;;6.72;;
68250;SDS011;55066;51.560;4.642;2023-04-16T12:20:52;20.70;;;6.20;;
68250;SDS011;55066;51.560;4.642;2023-04-16T12:23:25;18.25;;;6.38;;
68250;SDS011;55066;51.560;4.642;2023-04-16T12:25:53;17.08;;;6.75;;
68250;SDS011;55066;51.560;4.642;2023-04-16T12:30:56;20.25;;;7.30;;
68250;SDS011;55066;51.560;4.642;2023-04-16T12:33:22;22.92;;;6.55;;
68250;SDS011;55066;51.560;4.642;2023-04-16T12:35:48;19.70;;;6.67;;
68250;SDS011;55066;51.560;4.642;2023-04-16T12:38:14;17.70;;;7.00;;
68250;SDS011;55066;51.560;4.642;2023-04-16T12:40:40;15.90;;;6.43;;
68250;SDS011;55066;51.560;4.642;2023-04-16T12:43:05;18.92;;;7.45;;
68250;SDS011;55066;51.560;4.642;2023-04-16T12:45:35;16.98;;;7.00;;
68250;SDS011;55066;51.560;4.642;2023-04-16T12:48:03;17.50;;;7.07;;
68250;SDS011;55066;51.560;4.642;2023-04-16T12:50:31;17.83;;;6.93;;
68250;SDS011;55066;51.560;4.642;2023-04-16T12:52:57;19.13;;;7.72;;
68250;SDS011;55066;51.560;4.642;2023-04-16T12:55:23;20.50;;;7.43;;
68250;SDS011;55066;51.560;4.642;2023-04-16T12:57:49;18.30;;;7.43;;
68250;SDS011;55066;51.560;4.642;2023-04-16T13:00:17;23.50;;;7.72;;
68250;SDS011;55066;51.560;4.642;2023-04-16T13:02:43;16.35;;;6.93;;
68250;SDS011;55066;51.560;4.642;2023-04-16T13:05:09;23.25;;;8.10;;
68250;SDS011;55066;51.560;4.642;2023-04-16T13:07:35;16.50;;;7.70;;
68250;SDS011;55066;51.560;4.642;2023-04-16T13:10:01;19.55;;;7.30;;
68250;SDS011;55066;51.560;4.642;2023-04-16T13:12:26;21.05;;;6.90;;
68250;SDS011;55066;51.560;4.642;2023-04-16T13:14:52;19.90;;;7.90;;
68250;SDS011;55066;51.560;4.642;2023-04-16T13:17:19;21.95;;;8.05;;
68250;SDS011;55066;51.560;4.642;2023-04-16T13:19:44;15.40;;;7.70;;
68250;SDS011;55066;51.560;4.642;2023-04-16T13:22:10;22.63;;;8.80;;
68250;SDS011;55066;51.560;4.642;2023-04-16T13:24:36;20.23;;;7.85;;
68250;SDS011;55066;51.560;4.642;2023-04-16T13:27:02;16.75;;;7.60;;
68250;SDS011;55066;51.560;4.642;2023-04-16T13:29:28;14.88;;;7.43;;
68250;SDS011;55066;51.560;4.642;2023-04-16T13:31:54;25.13;;;8.38;;
68250;SDS011;55066;51.560;4.642;2023-04-16T13:34:20;15.93;;;6.70;;
68250;SDS011;55066;51.560;4.642;2023-04-16T13:36:46;14.73;;;7.37;;
68250;SDS011;55066;51.560;4.642;2023-04-16T13:39:11;17.57;;;7.90;;
68250;SDS011;55066;51.560;4.642;2023-04-16T13:41:37;25.40;;;10.20;;
68250;SDS011;55066;51.560;4.642;2023-04-16T13:44:04;18.30;;;8.20;;
68250;SDS011;55066;51.560;4.642;2023-04-16T13:46:31;18.52;;;7.15;;
68250;SDS011;55066;51.560;4.642;2023-04-16T13:48:57;17.67;;;7.63;;
68250;SDS011;55066;51.560;4.642;2023-04-16T13:51:22;18.40;;;7.72;;
68250;SDS011;55066;51.560;4.642;2023-04-16T13:53:48;17.45;;;8.13;;
68250;SDS011;55066;51.560;4.642;2023-04-16T13:56:14;16.63;;;8.20;;
68250;SDS011;55066;51.560;4.642;2023-04-16T13:58:42;16.55;;;7.97;;
68250;SDS011;55066;51.560;4.642;2023-04-16T14:01:08;17.00;;;8.02;;
68250;SDS011;55066;51.560;4.642;2023-04-16T14:03:34;18.67;;;8.38;;
68250;SDS011;55066;51.560;4.642;2023-04-16T14:06:02;15.40;;;7.70;;
68250;SDS011;55066;51.560;4.642;2023-04-16T14:08:28;14.50;;;6.78;;
68250;SDS011;55066;51.560;4.642;2023-04-16T14:10:54;20.90;;;8.02;;
68250;SDS011;55066;51.560;4.642;2023-04-16T14:13:20;19.73;;;7.72;;
68250;SDS011;55066;51.560;4.642;2023-04-16T14:15:46;18.63;;;8.05;;
68250;SDS011;55066;51.560;4.642;2023-04-16T14:18:13;24.90;;;8.15;;
68250;SDS011;55066;51.560;4.642;2023-04-16T14:20:41;18.17;;;7.73;;
68250;SDS011;55066;51.560;4.642;2023-04-16T14:23:07;17.45;;;7.20;;
68250;SDS011;55066;51.560;4.642;2023-04-16T14:25:32;18.43;;;8.17;;
68250;SDS011;55066;51.560;4.642;2023-04-16T14:27:58;16.95;;;7.78;;
68250;SDS011;55066;51.560;4.642;2023-04-16T14:30:25;17.50;;;7.80;;
68250;SDS011;55066;51.560;4.642;2023-04-16T14:32:51;21.58;;;7.07;;
68250;SDS011;55066;51.560;4.642;2023-04-16T14:35:16;17.65;;;7.25;;
68250;SDS011;55066;51.560;4.642;2023-04-16T14:37:42;16.70;;;7.38;;
68250;SDS011;55066;51.560;4.642;2023-04-16T14:40:08;18.42;;;6.88;;
68250;SDS011;55066;51.560;4.642;2023-04-16T14:42:35;22.17;;;8.63;;
68250;SDS011;55066;51.560;4.642;2023-04-16T14:45:01;20.52;;;7.32;;
68250;SDS011;55066;51.560;4.642;2023-04-16T14:47:31;17.10;;;7.18;;
68250;SDS011;55066;51.560;4.642;2023-04-16T14:50:00;14.35;;;7.30;;
68250;SDS011;55066;51.560;4.642;2023-04-16T14:52:26;19.92;;;7.20;;